Time;durP1;ratioP1;P1;durP2;ratioP2;P2;SDS_P1;SDS_P2;PMS_P1;PMS_P2;Temp;Humidity;BMP_temperature;BMP_pressure;BME280_temperature;BME280_humidity;BME280_pressure;Samples;Min_cycle;Max_cycle;Signal;HPM_P1;HPM_P2
2021/12/30 00:01:28;;;;;;;28.52;5.35;;;;;;;7.00;100.00;100710.75;4706762;30;20260;-78
2021/12/30 00:03:57;;;;;;;31.80;5.78;;;;;;;7.01;100.00;100716.84;4737846;30;20674;-79
2021/12/30 00:06:26;;;;;;;37.05;6.40;;;;;;;7.01;100.00;100720.38;4748919;30;20051;-78
2021/12/30 00:08:54;;;;;;;35.75;7.38;;;;;;;7.01;100.00;100720.38;4712551;30;20423;-79
2021/12/30 00:11:23;;;;;;;27.90;6.43;;;;;;;6.99;100.00;100721.19;4750635;30;20044;-79
2021/12/30 00:13:52;;;;;;;40.47;5.93;;;;;;;6.98;100.00;100716.84;4705152;30;20063;-80
2021/12/30 00:16:20;;;;;;;37.78;6.68;;;;;;;6.94;100.00;100721.13;4713838;30;20035;-80
2021/12/30 00:18:49;;;;;;;40.83;6.45;;;;;;;6.90;100.00;100726.28;4751672;30;20063;-79
2021/12/30 00:21:21;;;;;;;32.45;5.80;;;;;;;6.86;100.00;100727.97;4738934;30;20058;-78
2021/12/30 00:23:51;;;;;;;32.78;4.72;;;;;;;6.83;100.00;100736.66;4709065;30;20044;-77
2021/12/30 00:26:20;;;;;;;42.42;6.43;;;;;;;6.78;100.00;100743.56;4752013;30;20048;-78
2021/12/30 00:28:49;;;;;;;36.50;5.47;;;;;;;6.73;100.00;100754.81;4709307;30;20059;-77
2021/12/30 00:31:17;;;;;;;48.78;5.88;;;;;;;6.69;100.00;100753.00;4736354;30;20066;-80
2021/12/30 00:33:46;;;;;;;44.30;5.95;;;;;;;6.63;100.00;100770.38;4716638;30;20039;-79
2021/12/30 00:36:15;;;;;;;26.23;4.53;;;;;;;6.61;100.00;100766.84;4736296;30;20498;-78
2021/12/30 00:38:44;;;;;;;31.52;5.38;;;;;;;6.60;100.00;100778.19;4733223;30;20044;-78
2021/12/30 00:41:13;;;;;;;32.78;5.38;;;;;;;6.62;100.00;100786.94;4744462;30;20442;-78
2021/12/30 00:43:42;;;;;;;36.05;6.13;;;;;;;6.65;100.00;100807.06;4699007;30;20384;-78
2021/12/30 00:46:10;;;;;;;43.92;6.80;;;;;;;6.66;100.00;100816.69;4710021;30;20274;-78
2021/12/30 00:48:39;;;;;;;42.78;6.22;;;;;;;6.65;100.00;100814.91;4712357;30;20064;-78
2021/12/30 00:51:08;;;;;;;36.17;5.82;;;;;;;6.62;100.00;100817.50;4746321;30;20684;-79
2021/12/30 00:53:36;;;;;;;39.10;6.13;;;;;;;6.60;100.00;100825.31;4713139;30;20040;-79
2021/12/30 00:56:05;;;;;;;40.05;6.07;;;;;;;6.55;100.00;100826.94;4726693;30;20574;-79
2021/12/30 00:58:33;;;;;;;41.25;6.22;;;;;;;6.53;100.00;100820.81;4719149;30;20541;-78
2021/12/30 01:01:05;;;;;;;48.58;6.35;;;;;;;6.51;100.00;100812.03;4678818;30;20076;-77
2021/12/30 01:03:34;;;;;;;37.42;6.65;;;;;;;6.49;100.00;100807.63;4717202;30;20052;-79
2021/12/30 01:06:03;;;;;;;42.55;5.75;;;;;;;6.47;100.00;100819.81;4732091;30;20273;-78
2021/12/30 01:08:32;;;;;;;46.40;7.22;;;;;;;6.48;100.00;100825.06;4745240;30;20048;-79
2021/12/30 01:11:05;;;;;;;47.85;6.28;;;;;;;6.50;100.00;100825.09;4728733;30;20292;-79
2021/12/30 01:13:39;;;;;;;47.17;7.30;;;;;;;6.54;100.00;100821.69;4721793;30;20044;-79
2021/12/30 01:16:17;;;;;;;43.67;6.20;;;;;;;6.55;100.00;100818.22;4722682;30;20075;-78
2021/12/30 01:19:00;;;;;;;46.67;6.88;;;;;;;6.56;100.00;100825.19;4710205;30;20044;-78
2021/12/30 01:21:33;;;;;;;46.13;7.25;;;;;;;6.54;100.00;100837.38;4728795;30;20081;-79
2021/12/30 01:24:05;;;;;;;44.25;8.63;;;;;;;6.52;100.00;100831.25;4720794;30;20427;-79
2021/12/30 01:26:34;;;;;;;56.95;7.63;;;;;;;6.49;100.00;100829.44;4731731;30;20044;-79
2021/12/30 01:29:03;;;;;;;51.90;8.43;;;;;;;6.47;100.00;100820.69;4718326;30;20407;-79
2021/12/30 01:31:32;;;;;;;52.20;7.30;;;;;;;6.44;100.00;100821.50;4733110;30;20044;-78
2021/12/30 01:34:21;;;;;;;51.85;7.03;;;;;;;6.42;100.00;100830.19;4702454;30;20396;-78
2021/12/30 01:36:50;;;;;;;64.97;7.50;;;;;;;6.39;100.00;100830.09;4740169;30;20400;-80
2021/12/30 01:39:20;;;;;;;57.00;8.27;;;;;;;6.36;100.00;100832.69;4702980;30;20106;-79
2021/12/30 01:41:50;;;;;;;;;;;;;;;6.32;100.00;100820.41;4718709;30;20040;-78
2021/12/30 01:44:21;;;;;;;43.17;6.70;;;;;;;6.27;100.00;100833.38;4718128;30;19926;-78
2021/12/30 01:46:50;;;;;;;65.35;8.27;;;;;;;6.23;100.00;100837.66;4732332;30;20044;-78
2021/12/30 01:49:21;;;;;;;53.70;7.78;;;;;;;6.21;100.00;100835.88;4716505;30;20060;-79
2021/12/30 01:51:53;;;;;;;68.30;8.82;;;;;;;6.20;100.00;100844.56;4723390;30;20040;-78
2021/12/30 01:54:28;;;;;;;63.45;7.82;;;;;;;6.19;100.00;100848.03;4725335;30;20056;-80
2021/12/30 01:57:04;;;;;;;57.08;8.45;;;;;;;6.19;100.00;100848.03;4719679;30;20048;-79
2021/12/30 01:59:33;;;;;;;62.05;7.97;;;;;;;6.18;100.00;100857.63;4750375;30;20056;-79
2021/12/30 02:02:03;;;;;;;52.95;10.18;;;;;;;6.19;100.00;100862.00;4731007;30;20519;-78
2021/12/30 02:04:36;;;;;;;71.18;10.23;;;;;;;6.18;100.00;100855.00;4709815;30;20423;-78
2021/12/30 02:07:04;;;;;;;62.20;9.63;;;;;;;6.18;100.00;100860.25;4701681;30;20056;-78
2021/12/30 02:09:33;;;;;;;63.03;8.98;;;;;;;6.15;100.00;100854.94;4741613;30;20052;-79
2021/12/30 02:12:03;;;;;;;71.10;8.63;;;;;;;6.14;100.00;100860.13;4745843;30;20052;-79
2021/12/30 02:14:34;;;;;;;69.57;8.63;;;;;;;6.11;100.00;100868.81;4703765;30;20040;-78
2021/12/30 02:17:04;;;;;;;;;;;;;;;6.08;100.00;100873.97;4706395;30;20065;-78
2021/12/30 02:19:34;;;;;;;59.45;8.32;;;;;;;6.04;100.00;100869.53;4717317;30;19927;-78
2021/12/30 02:22:03;;;;;;;57.10;8.27;;;;;;;6.01;100.00;100886.03;4709664;30;20061;-78
2021/12/30 02:24:32;;;;;;;60.30;7.75;;;;;;;5.99;100.00;100894.69;4719615;30;20645;-78
2021/12/30 02:27:01;;;;;;;71.40;9.45;;;;;;;5.98;100.00;100906.00;4710932;30;20070;-78
2021/12/30 02:29:30;;;;;;;67.53;8.80;;;;;;;5.96;100.00;100915.56;4737425;30;20063;-78
2021/12/30 02:31:58;;;;;;;67.40;10.05;;;;;;;5.94;100.00;100910.25;4729245;30;20375;-78
2021/12/30 02:34:27;;;;;;;62.33;9.25;;;;;;;5.92;100.00;100903.22;4708442;30;20055;-78
2021/12/30 02:36:55;;;;;;;72.40;9.20;;;;;;;5.91;100.00;100898.84;4714186;30;20378;-78
2021/12/30 02:39:24;;;;;;;65.88;8.25;;;;;;;5.89;100.00;100900.53;4734261;30;20048;-78
2021/12/30 02:41:53;;;;;;;63.65;8.57;;;;;;;5.86;100.00;100912.69;4741353;30;20052;-80
2021/12/30 02:44:22;;;;;;;64.60;9.85;;;;;;;5.86;100.00;100919.66;4725956;30;20063;-78
2021/12/30 02:46:53;;;;;;;65.07;8.50;;;;;;;5.85;100.00;100923.97;4730969;30;20048;-78
2021/12/30 02:49:22;;;;;;;;;;;;;;;5.83;100.00;100915.22;4758955;30;20059;-78
2021/12/30 02:51:50;;;;;;;64.40;9.18;;;;;;;5.82;100.00;100912.56;4705125;30;19938;-78
2021/12/30 02:54:19;;;;;;;69.85;8.73;;;;;;;5.79;100.00;100902.94;4727571;30;20055;-78
2021/12/30 02:56:47;;;;;;;62.78;7.85;;;;;;;5.78;100.00;100902.88;4759387;30;20052;-78
2021/12/30 02:59:18;;;;;;;59.03;8.82;;;;;;;5.75;100.00;100903.72;4721602;30;20067;-79
2021/12/30 03:01:49;;;;;;;79.80;9.55;;;;;;;5.73;100.00;100908.03;4748803;30;20044;-78
2021/12/30 03:04:18;;;;;;;65.97;9.63;;;;;;;5.73;100.00;100925.41;4729266;30;20052;-78
2021/12/30 03:06:50;;;;;;;65.50;9.88;;;;;;;5.72;100.00;100937.63;4702618;30;20056;-78
2021/12/30 03:09:19;;;;;;;59.20;8.18;;;;;;;5.71;100.00;100919.28;4751451;30;20082;-79
2021/12/30 03:11:48;;;;;;;71.75;10.82;;;;;;;5.69;100.00;100924.50;4727361;30;20035;-78
2021/12/30 03:14:17;;;;;;;60.42;8.57;;;;;;;5.67;100.00;100915.69;4728791;30;20051;-79
2021/12/30 03:16:45;;;;;;;61.03;8.98;;;;;;;5.66;100.00;100917.44;4731976;30;20438;-78
2021/12/30 03:19:14;;;;;;;70.63;9.55;;;;;;;5.65;100.00;100909.53;4732023;30;20052;-79
2021/12/30 03:21:43;;;;;;;62.53;10.18;;;;;;;5.66;100.00;100895.63;4756558;30;20043;-78
2021/12/30 03:24:11;;;;;;;80.47;10.55;;;;;;;5.66;100.00;100904.34;4715118;30;20074;-79
2021/12/30 03:26:40;;;;;;;72.28;10.57;;;;;;;5.68;100.00;100896.56;4721715;30;20040;-78
2021/12/30 03:29:09;;;;;;;60.20;8.45;;;;;;;5.71;100.00;100896.66;4721141;30;20150;-78
2021/12/30 03:31:37;;;;;;;79.03;11.10;;;;;;;5.73;100.00;100907.13;4734054;30;20129;-78
2021/12/30 03:34:06;;;;;;;66.65;9.77;;;;;;;5.75;100.00;100906.31;4727977;30;20063;-78
2021/12/30 03:36:37;;;;;;;90.10;10.45;;;;;;;5.78;100.00;100909.00;4751222;30;20051;-79
2021/12/30 03:39:05;;;;;;;;;;;;;;;5.82;100.00;100908.25;4699233;30;20123;-78
2021/12/30 03:41:34;;;;;;;66.78;9.77;;;;;;;5.83;100.00;100896.91;4749874;30;19933;-78
2021/12/30 03:44:03;;;;;;;61.53;9.27;;;;;;;5.84;100.00;100901.31;4737291;30;20055;-79
2021/12/30 03:46:32;;;;;;;72.65;10.15;;;;;;;5.87;100.00;100895.25;4737560;30;20047;-78
2021/12/30 03:49:01;;;;;;;65.10;11.95;;;;;;;5.90;100.00;100900.56;4735920;30;20688;-78
2021/12/30 03:51:37;;;;;;;67.40;10.57;;;;;;;5.94;100.00;100906.75;4748884;30;20410;-79
2021/12/30 03:54:06;;;;;;;68.65;11.10;;;;;;;5.99;100.00;100905.16;4693904;30;20047;-77
2021/12/30 03:56:35;;;;;;;86.65;12.30;;;;;;;6.04;100.00;100898.28;4740591;30;20052;-78
2021/12/30 03:59:04;;;;;;;79.57;12.00;;;;;;;6.07;100.00;100876.53;4723573;30;20059;-78
2021/12/30 04:01:32;;;;;;;77.20;14.55;;;;;;;6.11;100.00;100881.88;4734380;30;20415;-79
2021/12/30 04:04:01;;;;;;;70.40;12.35;;;;;;;6.13;100.00;100882.81;4724573;30;20060;-79
2021/12/30 04:06:30;;;;;;;68.72;13.15;;;;;;;6.15;100.00;100890.69;4766131;30;20056;-78
2021/12/30 04:08:59;;;;;;;79.90;13.98;;;;;;;6.17;100.00;100896.84;4733330;30;20059;-79
2021/12/30 04:11:33;;;;;;;72.15;14.45;;;;;;;6.19;100.00;100903.88;4714613;30;20055;-78
2021/12/30 04:14:04;;;;;;;88.88;15.60;;;;;;;6.21;100.00;100902.16;4728060;30;20453;-78
2021/12/30 04:16:34;;;;;;;80.53;14.20;;;;;;;6.22;100.00;100903.94;4728406;30;20056;-78
2021/12/30 04:19:04;;;;;;;;;;;;;;;6.25;100.00;100890.91;4744402;30;20391;-78
2021/12/30 04:21:32;;;;;;;97.60;15.40;;;;;;;6.25;100.00;100871.72;4732301;30;19925;-79
2021/12/30 04:24:01;;;;;;;77.07;16.70;;;;;;;6.27;100.00;100884.84;4711444;30;20063;-78
2021/12/30 04:26:30;;;;;;;86.47;16.52;;;;;;;6.28;100.00;100879.63;4689619;30;23917;-78
2021/12/30 04:28:59;;;;;;;81.93;16.27;;;;;;;6.32;100.00;100875.34;4730783;30;20525;-78
2021/12/30 04:31:28;;;;;;;103.95;18.10;;;;;;;6.33;100.00;100898.03;4714958;30;20075;-80
2021/12/30 04:33:58;;;;;;;73.10;15.73;;;;;;;6.36;100.00;100903.34;4748766;30;20052;-78
2021/12/30 04:36:26;;;;;;;90.43;16.95;;;;;;;6.38;100.00;100904.25;4713308;30;20083;-80
2021/12/30 04:38:55;;;;;;;78.28;15.65;;;;;;;6.41;100.00;100912.19;4706598;30;20133;-80
2021/12/30 04:41:24;;;;;;;74.53;17.50;;;;;;;6.43;100.00;100907.88;4707238;30;20715;-79
2021/12/30 04:43:52;;;;;;;106.50;19.00;;;;;;;6.43;100.00;100919.22;4711989;30;20051;-78
2021/12/30 04:46:21;;;;;;;95.90;19.55;;;;;;;6.44;100.00;100922.72;4745497;30;20506;-78
2021/12/30 04:48:50;;;;;;;87.30;18.55;;;;;;;6.47;100.00;100908.81;4768769;30;20424;-79
2021/12/30 04:51:18;;;;;;;105.05;20.55;;;;;;;6.50;100.00;100890.53;4733421;30;20059;-79
2021/12/30 04:53:52;;;;;;;101.85;19.45;;;;;;;6.51;100.00;100887.97;4735611;30;20048;-78
2021/12/30 04:56:20;;;;;;;92.60;19.48;;;;;;;6.51;100.00;100895.81;4712102;30;20043;-79
2021/12/30 04:58:49;;;;;;;94.10;18.52;;;;;;;6.55;100.00;100907.25;4740867;30;20042;-78
2021/12/30 05:01:17;;;;;;;87.53;17.88;;;;;;;6.58;100.00;100908.19;4766375;30;20054;-78
2021/12/30 05:03:48;;;;;;;102.85;19.63;;;;;;;6.60;100.00;100903.84;4752785;30;20062;-78
2021/12/30 05:06:16;;;;;;;98.32;19.80;;;;;;;6.60;100.00;100897.75;4744263;30;20056;-79
2021/12/30 05:08:45;;;;;;;133.48;19.92;;;;;;;6.61;100.00;100891.66;4734088;30;20251;-78
2021/12/30 05:11:14;;;;;;;115.30;18.90;;;;;;;6.60;100.00;100882.91;4736186;30;20422;-77
2021/12/30 05:13:42;;;;;;;109.25;21.08;;;;;;;6.58;100.00;100886.38;4749110;30;20392;-78
2021/12/30 05:16:11;;;;;;;88.20;20.08;;;;;;;6.58;100.00;100891.59;4733541;30;20060;-78
2021/12/30 05:18:40;;;;;;;120.43;21.50;;;;;;;6.59;100.00;100902.06;4741082;30;20059;-78
2021/12/30 05:21:10;;;;;;;98.15;19.23;;;;;;;6.59;100.00;100894.22;4750932;30;20066;-79
2021/12/30 05:23:39;;;;;;;78.70;14.80;;;;;;;6.61;100.00;100896.88;4735381;30;20415;-79
2021/12/30 05:26:09;;;;;;;93.22;19.00;;;;;;;6.64;100.00;100902.19;4690880;30;20406;-77
2021/12/30 05:28:38;;;;;;;92.38;20.05;;;;;;;6.69;100.00;100908.41;4737306;30;20264;-79
2021/12/30 05:31:06;;;;;;;92.22;19.83;;;;;;;6.77;100.00;100919.03;4730341;30;20071;-78
2021/12/30 05:33:35;;;;;;;101.20;21.77;;;;;;;6.80;100.00;100896.38;4718928;30;20134;-78
2021/12/30 05:36:04;;;;;;;92.40;19.25;;;;;;;6.86;100.00;100893.00;4725701;30;20529;-79
2021/12/30 05:38:32;;;;;;;99.63;20.52;;;;;;;6.94;100.00;100880.94;4736038;30;20094;-78
2021/12/30 05:41:01;;;;;;;97.30;21.05;;;;;;;7.00;100.00;100888.03;4737914;30;20052;-79
2021/12/30 05:43:29;;;;;;;88.65;19.63;;;;;;;7.07;100.00;100896.88;4730033;30;20280;-80
2021/12/30 05:45:58;;;;;;;110.65;22.15;;;;;;;7.15;100.00;100890.06;4742597;30;20063;-79
2021/12/30 05:48:27;;;;;;;97.38;23.60;;;;;;;7.25;100.00;100891.09;4732314;30;20055;-77
2021/12/30 05:50:59;;;;;;;86.80;22.23;;;;;;;7.31;100.00;100889.44;4735092;30;20044;-79
2021/12/30 05:53:30;;;;;;;136.75;23.88;;;;;;;7.35;100.00;100887.75;4732068;30;20561;-78
2021/12/30 05:55:58;;;;;;;111.18;23.85;;;;;;;7.37;100.00;100886.94;4758282;30;20051;-78
2021/12/30 05:58:27;;;;;;;103.22;22.25;;;;;;;7.42;100.00;100890.50;4712101;30;20300;-79
2021/12/30 06:00:56;;;;;;;107.38;24.67;;;;;;;7.46;100.00;100887.94;4727342;30;20043;-79
2021/12/30 06:03:25;;;;;;;115.28;25.15;;;;;;;7.52;100.00;100893.28;4743269;30;20273;-77
2021/12/30 06:05:53;;;;;;;111.13;25.27;;;;;;;7.59;100.00;100892.53;4757190;30;20071;-78
2021/12/30 06:08:22;;;;;;;101.07;23.90;;;;;;;7.67;100.00;100887.41;4731010;30;20083;-78
2021/12/30 06:10:51;;;;;;;118.20;27.75;;;;;;;7.75;100.00;100886.69;4736848;30;20039;-78
2021/12/30 06:13:19;;;;;;;119.25;28.05;;;;;;;7.82;100.00;100895.50;4711974;30;20075;-78
2021/12/30 06:15:48;;;;;;;129.52;28.80;;;;;;;7.87;100.00;100888.59;4712868;30;20063;-79
2021/12/30 06:18:16;;;;;;;122.82;28.35;;;;;;;7.92;100.00;100907.03;4749663;30;20056;-78
2021/12/30 06:20:56;;;;;;;133.52;30.60;;;;;;;7.96;100.00;100895.75;4736621;30;20051;-79
2021/12/30 06:23:25;;;;;;;144.57;31.40;;;;;;;8.00;100.00;100897.53;4751252;30;20427;-79
2021/12/30 06:25:56;;;;;;;136.00;30.58;;;;;;;8.05;100.00;100892.34;4726770;30;20039;-78
2021/12/30 06:28:24;;;;;;;139.02;32.22;;;;;;;8.06;100.00;100884.50;4703899;30;20071;-79
2021/12/30 06:30:53;;;;;;;137.63;31.42;;;;;;;8.09;100.00;100908.19;4736347;30;20057;-78
2021/12/30 06:33:21;;;;;;;118.57;31.10;;;;;;;8.11;100.00;100898.56;4737181;30;20064;-78
2021/12/30 06:35:50;;;;;;;129.07;30.45;;;;;;;8.15;100.00;100905.63;4761252;30;20048;-80
2021/12/30 06:38:19;;;;;;;128.57;29.90;;;;;;;8.16;100.00;100896.88;4729585;30;20415;-78
2021/12/30 06:40:47;;;;;;;131.68;30.35;;;;;;;8.18;100.00;100892.56;4764662;30;20059;-78
2021/12/30 06:43:16;;;;;;;116.97;27.98;;;;;;;8.19;100.00;100896.94;4732219;30;20069;-77
2021/12/30 06:45:44;;;;;;;97.13;26.15;;;;;;;8.22;100.00;100896.06;4712694;30;20063;-78
2021/12/30 06:48:16;;;;;;;95.43;24.95;;;;;;;8.24;100.00;100898.72;4678654;30;20063;-77
2021/12/30 06:50:51;;;;;;;79.07;21.95;;;;;;;8.28;100.00;100901.44;4716732;30;20068;-78
2021/12/30 06:53:21;;;;;;;85.30;24.13;;;;;;;8.37;100.00;100895.41;4726705;30;20060;-78
2021/12/30 06:55:51;;;;;;;87.40;23.73;;;;;;;8.39;100.00;100894.59;4703829;30;20511;-78
2021/12/30 06:58:20;;;;;;;75.32;23.17;;;;;;;8.46;100.00;100900.81;4690603;30;20080;-78
2021/12/30 07:00:50;;;;;;;57.80;19.83;;;;;;;8.52;100.00;100889.50;4674843;30;20063;-78
2021/12/30 07:03:19;;;;;;;79.70;22.60;;;;;;;8.56;100.00;100886.94;4704089;30;20064;-77
2021/12/30 07:05:47;;;;;;;78.72;21.83;;;;;;;8.57;100.00;100878.19;4716236;30;20063;-78
2021/12/30 07:08:16;;;;;;;60.35;19.83;;;;;;;8.60;100.00;100887.88;4698528;30;20060;-79
2021/12/30 07:10:44;;;;;;;80.22;20.90;;;;;;;8.63;100.00;100884.38;4695200;30;20048;-78
2021/12/30 07:13:13;;;;;;;67.47;19.90;;;;;;;8.65;100.00;100882.66;4702151;30;20423;-78
2021/12/30 07:15:42;;;;;;;61.35;19.58;;;;;;;8.69;100.00;100884.44;4691419;30;20052;-78
2021/12/30 07:18:10;;;;;;;70.82;19.30;;;;;;;8.71;100.00;100874.84;4713991;30;20537;-77
2021/12/30 07:20:39;;;;;;;71.22;20.60;;;;;;;8.73;100.00;100883.63;4709951;30;20573;-77
2021/12/30 07:23:08;;;;;;;73.18;19.95;;;;;;;8.75;100.00;100879.25;4727588;30;20052;-78
2021/12/30 07:25:36;;;;;;;72.88;20.58;;;;;;;8.77;100.00;100891.56;4683874;30;20331;-78
2021/12/30 07:28:05;;;;;;;68.15;18.83;;;;;;;8.80;100.00;100890.72;4729674;30;20056;-78
2021/12/30 07:30:34;;;;;;;78.57;19.65;;;;;;;8.83;100.00;100901.25;4717332;30;20201;-78
2021/12/30 07:33:06;;;;;;;94.28;21.05;;;;;;;8.84;100.00;100900.38;4686355;30;20060;-79
2021/12/30 07:35:35;;;;;;;73.60;19.65;;;;;;;8.86;100.00;100901.28;4732925;30;20281;-78
2021/12/30 07:38:05;;;;;;;78.78;19.95;;;;;;;8.91;100.00;100904.84;4757014;30;20052;-78
2021/12/30 07:40:33;;;;;;;87.30;21.67;;;;;;;8.92;100.00;100900.47;4732430;30;20580;-79
2021/12/30 07:43:02;;;;;;;90.50;21.48;;;;;;;8.92;100.00;100904.00;4723977;30;20059;-78
2021/12/30 07:45:31;;;;;;;66.82;18.92;;;;;;;8.93;100.00;100903.13;4716748;30;20063;-79
2021/12/30 07:47:59;;;;;;;64.28;18.42;;;;;;;8.97;100.00;100901.41;4706243;30;20055;-77
2021/12/30 07:50:28;;;;;;;81.97;22.13;;;;;;;9.02;100.00;100906.69;4707461;30;20827;-78
2021/12/30 07:52:57;;;;;;;82.75;19.95;;;;;;;9.04;100.00;100911.13;4720903;30;20075;-78
2021/12/30 07:55:25;;;;;;;86.50;20.23;;;;;;;9.07;100.00;100910.25;4702252;30;20442;-78
2021/12/30 07:57:57;;;;;;;71.50;19.27;;;;;;;9.10;100.00;100908.53;4733744;30;20051;-79
2021/12/30 08:00:26;;;;;;;79.22;19.30;;;;;;;9.12;100.00;100912.06;4738136;30;20067;-78
2021/12/30 08:02:56;;;;;;;74.35;19.25;;;;;;;9.17;100.00;100914.75;4725809;30;20055;-78
2021/12/30 08:05:27;;;;;;;67.05;19.20;;;;;;;9.17;100.00;100917.41;4730227;30;20185;-79
2021/12/30 08:07:57;;;;;;;89.82;20.40;;;;;;;9.20;100.00;100912.16;4732780;30;20048;-78
2021/12/30 08:10:28;;;;;;;80.35;20.45;;;;;;;9.24;100.00;100915.69;4727721;30;20531;-78
2021/12/30 08:12:57;;;;;;;96.25;21.48;;;;;;;9.24;100.00;100913.94;4728195;30;20039;-78
2021/12/30 08:15:25;;;;;;;90.85;21.02;;;;;;;9.27;100.00;100910.47;4729644;30;20059;-78
2021/12/30 08:17:54;;;;;;;79.20;19.20;;;;;;;9.31;100.00;100920.16;4717747;30;20047;-78
2021/12/30 08:20:23;;;;;;;85.53;19.55;;;;;;;9.33;100.00;100911.41;4722820;30;20048;-79
2021/12/30 08:22:52;;;;;;;76.55;19.38;;;;;;;9.35;100.00;100914.03;4706204;30;20068;-78
2021/12/30 08:25:21;;;;;;;65.90;17.52;;;;;;;9.36;100.00;100902.66;4746898;30;20414;-78
2021/12/30 08:27:50;;;;;;;70.43;17.95;;;;;;;9.36;100.00;100893.03;4724251;30;20048;-78
2021/12/30 08:30:20;;;;;;;59.60;15.57;;;;;;;9.39;100.00;100893.91;4747709;30;20040;-78
2021/12/30 08:32:48;;;;;;;65.00;16.92;;;;;;;9.41;100.00;100908.81;4727633;30;20418;-77
2021/12/30 08:35:21;;;;;;;59.90;15.73;;;;;;;9.43;100.00;100896.56;4707954;30;20063;-79
2021/12/30 08:37:51;;;;;;;59.75;16.58;;;;;;;9.43;100.00;100911.47;4731874;30;20047;-78
2021/12/30 08:40:21;;;;;;;42.83;12.93;;;;;;;9.45;100.00;100907.13;4731761;30;20323;-78
2021/12/30 08:42:50;;;;;;;45.90;14.15;;;;;;;9.48;100.00;100915.03;4745506;30;20044;-78
2021/12/30 08:45:19;;;;;;;48.38;14.10;;;;;;;9.49;100.00;100901.91;4731718;30;20391;-78
2021/12/30 08:47:51;;;;;;;37.28;12.75;;;;;;;9.51;100.00;100912.44;4738769;30;20040;-78
2021/12/30 08:50:19;;;;;;;32.17;11.88;;;;;;;9.51;100.00;100915.94;4695322;30;20071;-79
2021/12/30 08:52:48;;;;;;;29.17;11.43;;;;;;;9.54;100.00;100918.59;4737807;30;20381;-77
2021/12/30 08:55:17;;;;;;;23.83;9.85;;;;;;;9.55;100.00;100904.59;4713648;30;20044;-78
2021/12/30 08:57:48;;;;;;;17.42;8.30;;;;;;;9.57;100.00;100917.75;4732954;30;20054;-78
2021/12/30 09:00:17;;;;;;;14.27;7.65;;;;;;;9.61;100.00;100911.66;4764255;30;20077;-78
2021/12/30 09:02:45;;;;;;;13.77;6.97;;;;;;;9.64;100.00;100919.56;4733151;30;20051;-77
2021/12/30 09:05:14;;;;;;;8.80;6.10;;;;;;;9.66;100.00;100916.94;4738373;30;20047;-78
2021/12/30 09:07:43;;;;;;;10.82;5.18;;;;;;;9.68;100.00;100918.72;4725346;30;20471;-79
2021/12/30 09:10:14;;;;;;;10.25;6.07;;;;;;;9.71;100.00;100925.75;4713684;30;20059;-78
2021/12/30 09:12:44;;;;;;;10.27;5.38;;;;;;;9.73;100.00;100921.38;4719781;30;20071;-78
2021/12/30 09:15:25;;;;;;;7.80;5.30;;;;;;;9.79;100.00;100917.91;4732961;30;20067;-79
2021/12/30 09:17:54;;;;;;;7.60;5.20;;;;;;;9.85;100.00;100917.94;4751921;30;20043;-77
2021/12/30 09:20:24;;;;;;;7.55;5.15;;;;;;;9.90;100.00;100922.38;4713848;30;20062;-79
2021/12/30 09:22:55;;;;;;;11.10;6.70;;;;;;;9.98;100.00;100933.00;4708784;30;20064;-78
2021/12/30 09:25:25;;;;;;;10.13;6.47;;;;;;;10.05;100.00;100932.13;4744524;30;20059;-79
2021/12/30 09:27:54;;;;;;;12.98;7.40;;;;;;;10.12;100.00;100943.59;4738979;30;20039;-78
2021/12/30 09:30:25;;;;;;;12.60;7.40;;;;;;;10.15;100.00;100940.97;4732478;30;20052;-79
2021/12/30 09:33:01;;;;;;;12.63;8.05;;;;;;;10.18;100.00;100937.50;4740531;30;20075;-79
2021/12/30 09:35:29;;;;;;;14.45;8.00;;;;;;;10.21;100.00;100945.41;4751333;30;20051;-79
2021/12/30 09:37:58;;;;;;;13.48;7.97;;;;;;;10.23;100.00;100935.78;4705681;30;20329;-78
2021/12/30 09:40:28;;;;;;;15.15;8.27;;;;;;;10.25;100.00;100940.19;4737787;30;20047;-79
2021/12/30 09:43:02;;;;;;;11.10;6.57;;;;;;;10.26;100.00;100935.78;4730561;30;20055;-79
2021/12/30 09:45:35;;;;;;;14.52;6.97;;;;;;;10.28;100.00;100939.31;4752746;30;20054;-79
2021/12/30 09:48:07;;;;;;;12.95;6.78;;;;;;;10.31;100.00;100952.53;4738886;30;20152;-78
2021/12/30 09:50:48;;;;;;;15.73;6.68;;;;;;;10.31;100.00;100949.91;4748894;30;20055;-80
2021/12/30 09:53:24;;;;;;;14.52;6.95;;;;;;;10.31;100.00;100939.38;4719133;30;20044;-79
2021/12/30 09:55:59;;;;;;;14.90;6.95;;;;;;;10.32;100.00;100952.56;4726086;30;20067;-79
2021/12/30 09:58:29;;;;;;;20.20;8.77;;;;;;;10.34;100.00;100960.47;4739033;30;20517;-79
2021/12/30 10:01:00;;;;;;;15.88;7.63;;;;;;;10.34;100.00;100955.19;4708648;30;20059;-78
2021/12/30 10:03:37;;;;;;;12.60;7.80;;;;;;;10.34;100.00;100955.19;4745786;30;20055;-79
2021/12/30 10:06:14;;;;;;;13.50;7.53;;;;;;;10.34;100.00;100971.00;4749489;30;20051;-79
2021/12/30 10:08:57;;;;;;;21.85;10.75;;;;;;;10.33;100.00;100962.19;4717865;30;20051;-78
2021/12/30 10:11:26;;;;;;;19.45;8.73;;;;;;;10.34;100.00;100960.47;4738787;30;20062;-78
2021/12/30 10:14:00;;;;;;;20.30;7.93;;;;;;;10.33;100.00;100964.84;4727689;30;20056;-78
2021/12/30 10:16:28;;;;;;;23.33;8.80;;;;;;;10.35;100.00;100967.47;4728738;30;20344;-78
2021/12/30 10:19:02;;;;;;;14.55;8.52;;;;;;;10.37;100.00;100968.38;4724183;30;20044;-79
2021/12/30 10:21:38;;;;;;;19.90;8.25;;;;;;;10.39;100.00;100971.03;4716169;30;20056;-78
2021/12/30 10:24:09;;;;;;;24.70;10.00;;;;;;;10.39;100.00;100965.75;4740441;30;20058;-78
2021/12/30 10:26:51;;;;;;;24.45;9.38;;;;;;;10.41;100.00;100964.00;4740267;30;20070;-78
2021/12/30 10:29:20;;;;;;;25.42;10.15;;;;;;;10.42;100.00;100971.91;4760516;30;20059;-78
2021/12/30 10:31:50;;;;;;;21.05;9.15;;;;;;;10.43;100.00;100971.03;4731356;30;20052;-78
2021/12/30 10:34:19;;;;;;;22.15;9.07;;;;;;;10.44;100.00;100959.63;4743493;30;20177;-78
2021/12/30 10:36:49;;;;;;;24.98;9.88;;;;;;;10.46;100.00;100964.91;4713180;30;20072;-78
2021/12/30 10:39:24;;;;;;;22.35;8.70;;;;;;;10.47;100.00;100964.03;4704150;30;20056;-78
2021/12/30 10:42:19;;;;;;;19.65;8.15;;;;;;;10.48;100.00;100960.53;4684004;30;20441;-78
2021/12/30 10:44:57;;;;;;;22.30;9.32;;;;;;;10.50;100.00;100954.38;4674336;30;20060;-78
2021/12/30 10:47:32;;;;;;;23.40;9.85;;;;;;;10.51;100.00;100961.44;4688331;30;20671;-78
2021/12/30 10:50:03;;;;;;;24.30;9.63;;;;;;;10.52;100.00;100971.09;4686817;30;20068;-78
2021/12/30 10:52:32;;;;;;;;;;;;;;;10.53;100.00;100966.72;4670059;30;20076;-78
2021/12/30 10:55:11;;;;;;;21.17;7.40;;;;;;;10.56;100.00;100971.13;4678302;30;20012;-77
2021/12/30 10:57:40;;;;;;;30.20;8.95;;;;;;;10.57;100.00;100970.22;4652899;30;20049;-77
2021/12/30 11:00:09;;;;;;;22.88;8.32;;;;;;;10.57;100.00;100972.84;4684603;30;20428;-78
2021/12/30 11:02:38;;;;;;;22.33;7.95;;;;;;;10.58;100.00;100977.28;4652791;30;20062;-79
2021/12/30 11:05:09;;;;;;;23.95;8.13;;;;;;;10.57;100.00;100963.22;4656989;30;20102;-78
2021/12/30 11:07:46;;;;;;;17.05;8.00;;;;;;;10.57;100.00;100979.03;4694179;30;20061;-78
2021/12/30 11:10:30;;;;;;;26.83;7.47;;;;;;;10.58;100.00;100978.13;4708521;30;20084;-78
2021/12/30 11:13:10;;;;;;;23.13;7.63;;;;;;;10.57;100.00;100983.41;4725044;30;20642;-78
2021/12/30 11:15:40;;;;;;;20.00;7.85;;;;;;;10.58;100.00;100983.41;4736042;30;20055;-78
2021/12/30 11:18:11;;;;;;;22.85;8.13;;;;;;;10.56;100.00;100971.13;4727286;30;20406;-78
2021/12/30 11:20:43;;;;;;;17.38;6.68;;;;;;;10.56;100.00;100979.88;4742837;30;20051;-78
2021/12/30 11:23:13;;;;;;;20.80;8.32;;;;;;;10.56;100.00;100987.78;4766702;30;20060;-78
2021/12/30 11:25:43;;;;;;;26.48;9.50;;;;;;;10.57;100.00;100984.31;4724268;30;20044;-78